sensor_id;sensor_type;location;lat;lon;timestamp;temperature;humidity
18932;DHT22;9598;50.954;3.112;2022-12-29T00:04:53;12.00;99.90
18932;DHT22;9598;50.954;3.112;2022-12-29T00:09:56;12.10;99.90
18932;DHT22;9598;50.954;3.112;2022-12-29T00:14:58;12.10;99.90
18932;DHT22;9598;50.954;3.112;2022-12-29T00:20:18;12.10;99.90
18932;DHT22;9598;50.954;3.112;2022-12-29T00:25:38;12.10;99.90
18932;DHT22;9598;50.954;3.112;2022-12-29T00:31:13;12.10;99.90
18932;DHT22;9598;50.954;3.112;2022-12-29T00:36:35;11.90;99.90
18932;DHT22;9598;50.954;3.112;2022-12-29T00:41:41;11.90;99.90
18932;DHT22;9598;50.954;3.112;2022-12-29T00:47:00;11.90;99.90
18932;DHT22;9598;50.954;3.112;2022-12-29T00:52:08;11.90;99.90
18932;DHT22;9598;50.954;3.112;2022-12-29T00:57:12;11.90;99.90
18932;DHT22;9598;50.954;3.112;2022-12-29T01:02:14;12.00;99.90
18932;DHT22;9598;50.954;3.112;2022-12-29T01:07:16;12.00;99.90
18932;DHT22;9598;50.954;3.112;2022-12-29T01:12:20;12.00;99.90
18932;DHT22;9598;50.954;3.112;2022-12-29T01:17:41;12.00;99.90
18932;DHT22;9598;50.954;3.112;2022-12-29T01:22:43;12.00;99.90
18932;DHT22;9598;50.954;3.112;2022-12-29T01:27:47;12.00;99.90
18932;DHT22;9598;50.954;3.112;2022-12-29T01:32:49;12.00;99.90
18932;DHT22;9598;50.954;3.112;2022-12-29T01:37:53;12.00;99.90
18932;DHT22;9598;50.954;3.112;2022-12-29T01:42:57;12.00;99.90
18932;DHT22;9598;50.954;3.112;2022-12-29T01:48:02;12.00;99.90
18932;DHT22;9598;50.954;3.112;2022-12-29T01:53:09;12.00;99.90
18932;DHT22;9598;50.954;3.112;2022-12-29T01:58:15;12.00;99.90
18932;DHT22;9598;50.954;3.112;2022-12-29T02:03:21;12.00;99.90
18932;DHT22;9598;50.954;3.112;2022-12-29T02:08:26;12.00;99.90
18932;DHT22;9598;50.954;3.112;2022-12-29T02:13:31;11.80;99.90
18932;DHT22;9598;50.954;3.112;2022-12-29T02:18:45;11.60;99.90
18932;DHT22;9598;50.954;3.112;2022-12-29T02:24:11;11.50;99.90
18932;DHT22;9598;50.954;3.112;2022-12-29T02:29:40;11.40;99.90
18932;DHT22;9598;50.954;3.112;2022-12-29T02:34:52;11.30;99.90
18932;DHT22;9598;50.954;3.112;2022-12-29T02:40:02;11.20;99.90
18932;DHT22;9598;50.954;3.112;2022-12-29T02:45:12;11.20;99.90
18932;DHT22;9598;50.954;3.112;2022-12-29T02:50:20;11.10;99.90
18932;DHT22;9598;50.954;3.112;2022-12-29T02:55:25;11.10;99.90
18932;DHT22;9598;50.954;3.112;2022-12-29T03:00:27;11.10;99.90
18932;DHT22;9598;50.954;3.112;2022-12-29T03:05:55;11.10;99.90
18932;DHT22;9598;50.954;3.112;2022-12-29T03:11:03;11.10;99.90
18932;DHT22;9598;50.954;3.112;2022-12-29T03:16:12;11.10;99.90
18932;DHT22;9598;50.954;3.112;2022-12-29T03:21:21;11.10;99.90
18932;DHT22;9598;50.954;3.112;2022-12-29T03:26:50;11.10;99.90
18932;DHT22;9598;50.954;3.112;2022-12-29T03:31:55;11.10;99.90
18932;DHT22;9598;50.954;3.112;2022-12-29T03:37:02;11.10;99.90
18932;DHT22;9598;50.954;3.112;2022-12-29T03:42:08;11.10;99.90
18932;DHT22;9598;50.954;3.112;2022-12-29T03:47:13;11.10;99.90
18932;DHT22;9598;50.954;3.112;2022-12-29T03:52:18;11.20;99.90
18932;DHT22;9598;50.954;3.112;2022-12-29T03:57:21;11.10;99.90
18932;DHT22;9598;50.954;3.112;2022-12-29T04:02:34;11.10;99.90
18932;DHT22;9598;50.954;3.112;2022-12-29T04:07:38;11.20;99.90
18932;DHT22;9598;50.954;3.112;2022-12-29T04:12:40;11.10;99.90
18932;DHT22;9598;50.954;3.112;2022-12-29T04:17:43;11.10;99.90
18932;DHT22;9598;50.954;3.112;2022-12-29T04:22:48;11.10;99.90
18932;DHT22;9598;50.954;3.112;2022-12-29T04:27:50;11.10;99.90
18932;DHT22;9598;50.954;3.112;2022-12-29T04:33:07;11.10;99.90
18932;DHT22;9598;50.954;3.112;2022-12-29T04:38:11;11.10;99.90
18932;DHT22;9598;50.954;3.112;2022-12-29T04:43:14;11.10;99.90
18932;DHT22;9598;50.954;3.112;2022-12-29T04:48:39;11.20;99.90
18932;DHT22;9598;50.954;3.112;2022-12-29T04:54:08;11.10;99.90
18932;DHT22;9598;50.954;3.112;2022-12-29T04:59:11;11.20;99.90
18932;DHT22;9598;50.954;3.112;2022-12-29T05:04:13;11.20;99.90
18932;DHT22;9598;50.954;3.112;2022-12-29T05:09:18;11.10;99.90
18932;DHT22;9598;50.954;3.112;2022-12-29T05:14:21;11.10;99.90
18932;DHT22;9598;50.954;3.112;2022-12-29T05:19:23;11.10;99.90
18932;DHT22;9598;50.954;3.112;2022-12-29T05:24:27;11.10;99.90
18932;DHT22;9598;50.954;3.112;2022-12-29T05:29:31;11.10;99.90
18932;DHT22;9598;50.954;3.112;2022-12-29T05:34:33;11.20;99.90
18932;DHT22;9598;50.954;3.112;2022-12-29T05:39:37;11.20;99.90
18932;DHT22;9598;50.954;3.112;2022-12-29T05:44:40;11.20;99.90
18932;DHT22;9598;50.954;3.112;2022-12-29T05:49:51;11.20;99.90
18932;DHT22;9598;50.954;3.112;2022-12-29T05:55:07;11.10;99.90
18932;DHT22;9598;50.954;3.112;2022-12-29T06:00:12;11.10;99.90
18932;DHT22;9598;50.954;3.112;2022-12-29T06:05:20;11.10;99.90
18932;DHT22;9598;50.954;3.112;2022-12-29T06:10:23;11.20;99.90
18932;DHT22;9598;50.954;3.112;2022-12-29T06:15:34;11.20;99.90
18932;DHT22;9598;50.954;3.112;2022-12-29T06:20:39;11.10;99.90
18932;DHT22;9598;50.954;3.112;2022-12-29T06:25:43;11.00;99.90
18932;DHT22;9598;50.954;3.112;2022-12-29T06:30:47;10.80;99.90
18932;DHT22;9598;50.954;3.112;2022-12-29T06:35:49;10.70;99.90
18932;DHT22;9598;50.954;3.112;2022-12-29T06:40:52;10.70;99.90
18932;DHT22;9598;50.954;3.112;2022-12-29T06:46:14;10.70;99.90
18932;DHT22;9598;50.954;3.112;2022-12-29T06:51:16;10.70;99.90
18932;DHT22;9598;50.954;3.112;2022-12-29T06:56:19;10.80;99.90
18932;DHT22;9598;50.954;3.112;2022-12-29T07:01:21;10.80;99.90
18932;DHT22;9598;50.954;3.112;2022-12-29T07:06:24;10.80;99.90
18932;DHT22;9598;50.954;3.112;2022-12-29T07:11:27;10.90;99.90
18932;DHT22;9598;50.954;3.112;2022-12-29T07:16:29;10.90;99.90
18932;DHT22;9598;50.954;3.112;2022-12-29T07:21:31;10.90;99.90
18932;DHT22;9598;50.954;3.112;2022-12-29T07:26:35;10.90;99.90
18932;DHT22;9598;50.954;3.112;2022-12-29T07:31:37;10.90;99.90
18932;DHT22;9598;50.954;3.112;2022-12-29T07:36:39;10.90;99.90
18932;DHT22;9598;50.954;3.112;2022-12-29T07:41:43;10.90;99.90
18932;DHT22;9598;50.954;3.112;2022-12-29T07:46:51;10.90;99.90
18932;DHT22;9598;50.954;3.112;2022-12-29T07:51:53;10.80;99.90
18932;DHT22;9598;50.954;3.112;2022-12-29T07:56:57;10.70;99.90
18932;DHT22;9598;50.954;3.112;2022-12-29T08:02:01;10.70;99.90
18932;DHT22;9598;50.954;3.112;2022-12-29T08:07:03;10.70;99.90
18932;DHT22;9598;50.954;3.112;2022-12-29T08:12:09;10.70;99.90
18932;DHT22;9598;50.954;3.112;2022-12-29T08:17:11;10.60;99.90
18932;DHT22;9598;50.954;3.112;2022-12-29T08:22:14;10.60;99.90
18932;DHT22;9598;50.954;3.112;2022-12-29T08:27:18;10.50;99.90
18932;DHT22;9598;50.954;3.112;2022-12-29T08:32:20;10.50;99.90
18932;DHT22;9598;50.954;3.112;2022-12-29T08:37:22;10.40;99.90
18932;DHT22;9598;50.954;3.112;2022-12-29T08:42:26;10.40;99.90
18932;DHT22;9598;50.954;3.112;2022-12-29T08:47:31;10.40;99.90
18932;DHT22;9598;50.954;3.112;2022-12-29T08:52:33;10.40;99.90
18932;DHT22;9598;50.954;3.112;2022-12-29T08:57:37;10.40;99.90
18932;DHT22;9598;50.954;3.112;2022-12-29T09:02:48;10.40;99.90
18932;DHT22;9598;50.954;3.112;2022-12-29T09:07:51;10.40;99.90
18932;DHT22;9598;50.954;3.112;2022-12-29T09:12:54;10.30;99.90
18932;DHT22;9598;50.954;3.112;2022-12-29T09:17:56;10.30;99.90
18932;DHT22;9598;50.954;3.112;2022-12-29T09:22:59;10.40;99.90
18932;DHT22;9598;50.954;3.112;2022-12-29T09:28:02;10.40;99.90
18932;DHT22;9598;50.954;3.112;2022-12-29T09:33:08;10.40;99.90
18932;DHT22;9598;50.954;3.112;2022-12-29T09:38:10;10.40;99.90
18932;DHT22;9598;50.954;3.112;2022-12-29T09:43:42;10.40;99.90
18932;DHT22;9598;50.954;3.112;2022-12-29T09:48:51;10.50;99.90
18932;DHT22;9598;50.954;3.112;2022-12-29T09:53:58;10.60;99.90
18932;DHT22;9598;50.954;3.112;2022-12-29T09:59:06;10.60;99.90
18932;DHT22;9598;50.954;3.112;2022-12-29T10:04:09;10.60;99.90
18932;DHT22;9598;50.954;3.112;2022-12-29T10:09:15;10.60;99.90
18932;DHT22;9598;50.954;3.112;2022-12-29T10:14:33;10.60;99.90
18932;DHT22;9598;50.954;3.112;2022-12-29T10:19:57;10.60;99.90
18932;DHT22;9598;50.954;3.112;2022-12-29T10:25:15;10.60;99.90
18932;DHT22;9598;50.954;3.112;2022-12-29T10:30:19;10.60;99.90
18932;DHT22;9598;50.954;3.112;2022-12-29T10:35:23;10.60;99.90
18932;DHT22;9598;50.954;3.112;2022-12-29T10:40:28;10.60;99.90
18932;DHT22;9598;50.954;3.112;2022-12-29T10:45:33;10.60;99.90
18932;DHT22;9598;50.954;3.112;2022-12-29T10:50:37;10.60;99.90
18932;DHT22;9598;50.954;3.112;2022-12-29T10:55:43;10.70;99.90
18932;DHT22;9598;50.954;3.112;2022-12-29T11:00:51;10.70;99.90
18932;DHT22;9598;50.954;3.112;2022-12-29T11:05:56;10.70;99.90
18932;DHT22;9598;50.954;3.112;2022-12-29T11:11:01;10.70;99.90
18932;DHT22;9598;50.954;3.112;2022-12-29T11:16:05;10.50;99.90
18932;DHT22;9598;50.954;3.112;2022-12-29T11:21:25;10.50;99.90
18932;DHT22;9598;50.954;3.112;2022-12-29T11:26:28;10.30;99.90
18932;DHT22;9598;50.954;3.112;2022-12-29T11:31:40;10.30;99.90
18932;DHT22;9598;50.954;3.112;2022-12-29T11:36:42;10.30;99.90
18932;DHT22;9598;50.954;3.112;2022-12-29T11:41:51;10.30;99.90
18932;DHT22;9598;50.954;3.112;2022-12-29T11:46:56;10.30;99.90
18932;DHT22;9598;50.954;3.112;2022-12-29T11:51:58;10.30;99.90
18932;DHT22;9598;50.954;3.112;2022-12-29T11:57:10;10.40;99.90
18932;DHT22;9598;50.954;3.112;2022-12-29T12:02:36;10.50;99.90
18932;DHT22;9598;50.954;3.112;2022-12-29T12:07:43;10.50;99.90
18932;DHT22;9598;50.954;3.112;2022-12-29T12:12:51;10.60;99.90
18932;DHT22;9598;50.954;3.112;2022-12-29T12:18:02;10.60;99.90
18932;DHT22;9598;50.954;3.112;2022-12-29T12:23:13;10.60;99.90
18932;DHT22;9598;50.954;3.112;2022-12-29T12:28:23;10.60;99.90
18932;DHT22;9598;50.954;3.112;2022-12-29T12:33:32;10.60;99.90
18932;DHT22;9598;50.954;3.112;2022-12-29T12:38:42;10.60;99.90
18932;DHT22;9598;50.954;3.112;2022-12-29T12:43:50;10.50;99.90
18932;DHT22;9598;50.954;3.112;2022-12-29T12:49:15;10.40;99.90
18932;DHT22;9598;50.954;3.112;2022-12-29T12:54:32;10.30;99.90
18932;DHT22;9598;50.954;3.112;2022-12-29T12:59:43;10.20;99.90
18932;DHT22;9598;50.954;3.112;2022-12-29T13:05:09;10.10;99.90
18932;DHT22;9598;50.954;3.112;2022-12-29T13:10:33;10.00;99.90
18932;DHT22;9598;50.954;3.112;2022-12-29T13:15:44;10.00;99.90
18932;DHT22;9598;50.954;3.112;2022-12-29T13:20:53;9.90;99.90
18932;DHT22;9598;50.954;3.112;2022-12-29T13:26:04;9.90;99.90
18932;DHT22;9598;50.954;3.112;2022-12-29T13:31:15;9.90;99.90
18932;DHT22;9598;50.954;3.112;2022-12-29T13:36:22;9.90;99.90
18932;DHT22;9598;50.954;3.112;2022-12-29T13:41:30;9.80;99.90
18932;DHT22;9598;50.954;3.112;2022-12-29T13:46:37;9.90;99.90
18932;DHT22;9598;50.954;3.112;2022-12-29T13:51:48;9.80;99.90
18932;DHT22;9598;50.954;3.112;2022-12-29T13:56:55;9.80;99.90
18932;DHT22;9598;50.954;3.112;2022-12-29T14:02:00;9.80;99.90
18932;DHT22;9598;50.954;3.112;2022-12-29T14:07:12;9.90;99.90
18932;DHT22;9598;50.954;3.112;2022-12-29T14:12:30;10.00;99.90
18932;DHT22;9598;50.954;3.112;2022-12-29T14:17:33;10.00;99.90
18932;DHT22;9598;50.954;3.112;2022-12-29T14:22:56;10.00;99.90
18932;DHT22;9598;50.954;3.112;2022-12-29T14:27:59;10.00;99.90
18932;DHT22;9598;50.954;3.112;2022-12-29T14:33:17;10.00;99.90
18932;DHT22;9598;50.954;3.112;2022-12-29T14:38:26;10.00;99.90
18932;DHT22;9598;50.954;3.112;2022-12-29T14:43:28;9.90;99.90
18932;DHT22;9598;50.954;3.112;2022-12-29T14:48:35;9.90;99.90
18932;DHT22;9598;50.954;3.112;2022-12-29T14:53:45;9.90;99.90
18932;DHT22;9598;50.954;3.112;2022-12-29T14:58:51;9.90;99.90
18932;DHT22;9598;50.954;3.112;2022-12-29T15:03:58;9.90;99.90
18932;DHT22;9598;50.954;3.112;2022-12-29T15:09:06;9.80;99.90
18932;DHT22;9598;50.954;3.112;2022-12-29T15:14:47;9.70;99.90
18932;DHT22;9598;50.954;3.112;2022-12-29T15:19:50;9.70;99.90
18932;DHT22;9598;50.954;3.112;2022-12-29T15:24:55;9.70;99.90
18932;DHT22;9598;50.954;3.112;2022-12-29T15:29:58;9.70;99.90
18932;DHT22;9598;50.954;3.112;2022-12-29T15:35:22;9.60;99.90
18932;DHT22;9598;50.954;3.112;2022-12-29T15:40:27;9.60;99.90
18932;DHT22;9598;50.954;3.112;2022-12-29T15:45:33;9.50;99.90
18932;DHT22;9598;50.954;3.112;2022-12-29T15:50:36;9.50;99.90
18932;DHT22;9598;50.954;3.112;2022-12-29T15:55:41;9.40;99.90
18932;DHT22;9598;50.954;3.112;2022-12-29T16:00:47;9.40;99.90
18932;DHT22;9598;50.954;3.112;2022-12-29T16:05:53;9.40;99.90
18932;DHT22;9598;50.954;3.112;2022-12-29T16:10:56;9.30;99.90
18932;DHT22;9598;50.954;3.112;2022-12-29T16:16:02;9.30;99.90
18932;DHT22;9598;50.954;3.112;2022-12-29T16:21:15;9.30;99.90
18932;DHT22;9598;50.954;3.112;2022-12-29T16:26:21;9.30;99.90
18932;DHT22;9598;50.954;3.112;2022-12-29T16:31:28;9.30;99.90
18932;DHT22;9598;50.954;3.112;2022-12-29T16:36:39;9.20;99.90
18932;DHT22;9598;50.954;3.112;2022-12-29T16:41:43;9.20;99.90
18932;DHT22;9598;50.954;3.112;2022-12-29T16:46:58;9.20;99.90
18932;DHT22;9598;50.954;3.112;2022-12-29T16:52:11;9.20;99.90
18932;DHT22;9598;50.954;3.112;2022-12-29T16:57:24;9.20;99.90
18932;DHT22;9598;50.954;3.112;2022-12-29T17:02:29;9.20;99.90
18932;DHT22;9598;50.954;3.112;2022-12-29T17:07:32;9.20;99.90
18932;DHT22;9598;50.954;3.112;2022-12-29T17:12:36;9.20;99.90
18932;DHT22;9598;50.954;3.112;2022-12-29T17:17:40;9.20;99.90
18932;DHT22;9598;50.954;3.112;2022-12-29T17:22:43;9.20;99.90
18932;DHT22;9598;50.954;3.112;2022-12-29T17:27:49;9.20;99.90
18932;DHT22;9598;50.954;3.112;2022-12-29T17:32:55;9.30;99.90
18932;DHT22;9598;50.954;3.112;2022-12-29T17:37:59;9.20;99.90
18932;DHT22;9598;50.954;3.112;2022-12-29T17:43:02;9.20;99.90
18932;DHT22;9598;50.954;3.112;2022-12-29T17:48:10;9.20;99.90
18932;DHT22;9598;50.954;3.112;2022-12-29T17:53:15;9.20;99.90
18932;DHT22;9598;50.954;3.112;2022-12-29T17:58:21;9.10;99.90
18932;DHT22;9598;50.954;3.112;2022-12-29T18:03:26;9.10;99.90
18932;DHT22;9598;50.954;3.112;2022-12-29T18:08:29;9.10;99.90
18932;DHT22;9598;50.954;3.112;2022-12-29T18:13:33;9.10;99.90
18932;DHT22;9598;50.954;3.112;2022-12-29T18:18:35;9.10;99.90
18932;DHT22;9598;50.954;3.112;2022-12-29T18:23:37;9.10;99.90
18932;DHT22;9598;50.954;3.112;2022-12-29T18:28:41;9.10;99.90
18932;DHT22;9598;50.954;3.112;2022-12-29T18:33:44;9.00;99.90
18932;DHT22;9598;50.954;3.112;2022-12-29T18:38:46;9.00;99.90
18932;DHT22;9598;50.954;3.112;2022-12-29T18:43:50;9.00;99.90
18932;DHT22;9598;50.954;3.112;2022-12-29T18:48:52;9.00;99.90
18932;DHT22;9598;50.954;3.112;2022-12-29T18:53:54;9.00;99.90
18932;DHT22;9598;50.954;3.112;2022-12-29T18:58:58;9.00;99.90
18932;DHT22;9598;50.954;3.112;2022-12-29T19:04:00;8.90;99.90
18932;DHT22;9598;50.954;3.112;2022-12-29T19:09:02;8.80;99.90
18932;DHT22;9598;50.954;3.112;2022-12-29T19:14:12;8.80;99.90
18932;DHT22;9598;50.954;3.112;2022-12-29T19:19:15;8.80;99.90
18932;DHT22;9598;50.954;3.112;2022-12-29T19:24:17;8.70;99.90
18932;DHT22;9598;50.954;3.112;2022-12-29T19:29:21;8.70;99.90
18932;DHT22;9598;50.954;3.112;2022-12-29T19:34:23;8.60;99.90
18932;DHT22;9598;50.954;3.112;2022-12-29T19:39:25;8.60;99.90
18932;DHT22;9598;50.954;3.112;2022-12-29T19:44:30;8.50;99.90
18932;DHT22;9598;50.954;3.112;2022-12-29T19:49:33;8.50;99.90
18932;DHT22;9598;50.954;3.112;2022-12-29T19:54:35;8.50;99.90
18932;DHT22;9598;50.954;3.112;2022-12-29T19:59:39;8.50;99.90
18932;DHT22;9598;50.954;3.112;2022-12-29T20:04:41;8.40;99.90
18932;DHT22;9598;50.954;3.112;2022-12-29T20:09:44;8.40;99.90
18932;DHT22;9598;50.954;3.112;2022-12-29T20:14:49;8.40;99.90
18932;DHT22;9598;50.954;3.112;2022-12-29T20:19:51;8.40;99.90
18932;DHT22;9598;50.954;3.112;2022-12-29T20:24:54;8.40;99.90
18932;DHT22;9598;50.954;3.112;2022-12-29T20:29:57;8.40;99.90
18932;DHT22;9598;50.954;3.112;2022-12-29T20:34:59;8.40;99.90
18932;DHT22;9598;50.954;3.112;2022-12-29T20:40:01;8.30;99.90
18932;DHT22;9598;50.954;3.112;2022-12-29T20:45:05;8.30;99.90
18932;DHT22;9598;50.954;3.112;2022-12-29T20:50:08;8.30;99.90
18932;DHT22;9598;50.954;3.112;2022-12-29T20:55:10;8.20;99.90
18932;DHT22;9598;50.954;3.112;2022-12-29T21:00:14;8.20;99.90
18932;DHT22;9598;50.954;3.112;2022-12-29T21:05:16;8.20;99.90
18932;DHT22;9598;50.954;3.112;2022-12-29T21:10:19;8.10;99.90
18932;DHT22;9598;50.954;3.112;2022-12-29T21:15:24;8.10;99.90
18932;DHT22;9598;50.954;3.112;2022-12-29T21:20:26;8.10;99.90
18932;DHT22;9598;50.954;3.112;2022-12-29T21:25:32;8.10;99.90
18932;DHT22;9598;50.954;3.112;2022-12-29T21:30:39;8.00;99.90
18932;DHT22;9598;50.954;3.112;2022-12-29T21:35:41;8.10;99.90
18932;DHT22;9598;50.954;3.112;2022-12-29T21:40:43;8.10;99.90
18932;DHT22;9598;50.954;3.112;2022-12-29T21:45:49;8.10;99.90
18932;DHT22;9598;50.954;3.112;2022-12-29T21:50:53;8.10;99.90
18932;DHT22;9598;50.954;3.112;2022-12-29T21:56:16;8.10;99.90
18932;DHT22;9598;50.954;3.112;2022-12-29T22:01:20;8.10;99.90
18932;DHT22;9598;50.954;3.112;2022-12-29T22:06:41;8.10;99.90
18932;DHT22;9598;50.954;3.112;2022-12-29T22:12:00;8.10;99.90
18932;DHT22;9598;50.954;3.112;2022-12-29T22:17:21;8.10;99.90
18932;DHT22;9598;50.954;3.112;2022-12-29T22:22:23;8.10;99.90
18932;DHT22;9598;50.954;3.112;2022-12-29T22:27:25;8.10;99.90
18932;DHT22;9598;50.954;3.112;2022-12-29T22:32:30;8.00;99.90
18932;DHT22;9598;50.954;3.112;2022-12-29T22:37:32;8.10;99.90
18932;DHT22;9598;50.954;3.112;2022-12-29T22:42:34;8.00;99.90
18932;DHT22;9598;50.954;3.112;2022-12-29T22:47:38;8.00;99.90
18932;DHT22;9598;50.954;3.112;2022-12-29T22:52:40;8.00;99.90
18932;DHT22;9598;50.954;3.112;2022-12-29T22:57:42;8.00;99.90
18932;DHT22;9598;50.954;3.112;2022-12-29T23:02:46;8.00;99.90
18932;DHT22;9598;50.954;3.112;2022-12-29T23:07:48;8.00;99.90
18932;DHT22;9598;50.954;3.112;2022-12-29T23:12:50;8.00;99.90
18932;DHT22;9598;50.954;3.112;2022-12-29T23:17:54;8.00;99.90
18932;DHT22;9598;50.954;3.112;2022-12-29T23:22:56;8.00;99.90
18932;DHT22;9598;50.954;3.112;2022-12-29T23:27:58;7.90;99.90
18932;DHT22;9598;50.954;3.112;2022-12-29T23:33:01;7.90;99.90
18932;DHT22;9598;50.954;3.112;2022-12-29T23:38:03;7.90;99.90
18932;DHT22;9598;50.954;3.112;2022-12-29T23:43:05;7.80;99.90
18932;DHT22;9598;50.954;3.112;2022-12-29T23:48:09;7.80;99.90
18932;DHT22;9598;50.954;3.112;2022-12-29T23:53:11;7.80;99.90
18932;DHT22;9598;50.954;3.112;2022-12-29T23:58:13;7.80;99.90
